Time;durP1;ratioP1;P1;durP2;ratioP2;P2;SDS_P1;SDS_P2;PMS_P1;PMS_P2;Temp;Humidity;BMP_temperature;BMP_pressure;BME280_temperature;BME280_humidity;BME280_pressure;Samples;Min_cycle;Max_cycle;Signal;HPM_P1;HPM_P2
2023/10/06 00:01:07;;;;;;;;;;;;;;;28.00;42.00;95189.03;5070667;28;7245;-60
2023/10/06 00:03:36;;;;;;;;;;;;;;;27.98;42.39;95186.03;5069214;28;7123;-61
2023/10/06 00:06:05;;;;;;;;;;;;;;;27.98;42.13;95188.03;5055718;28;7169;-61
2023/10/06 00:08:40;;;;;;;;;;;;;;;27.98;42.35;95193.56;5051962;28;6994;-61
2023/10/06 00:11:15;;;;;;;;;;;;;;;27.98;41.86;95185.25;5084163;28;7220;-61
2023/10/06 00:14:00;;;;;;;;;;;;;;;27.95;42.67;95183.50;5056847;28;7182;-60
2023/10/06 00:16:34;;;;;;;;;;;;;;;27.99;42.05;95184.00;5072354;28;8827;-60
2023/10/06 00:19:14;;;;;;;;;;;;;;;27.94;42.25;95179.97;5065448;28;7420;-60
2023/10/06 00:21:47;;;;;;;;;;;;;;;27.97;41.79;95183.75;5087665;28;9260;-60
2023/10/06 00:24:50;;;;;;;;;;;;;;;27.96;42.42;95182.22;5061732;28;7018;-61
2023/10/06 00:27:29;;;;;;;;;;;;;;;27.95;41.94;95186.25;5014852;28;7231;-60
2023/10/06 00:29:58;;;;;;;;;;;;;;;27.94;42.36;95184.75;5029204;28;6968;-60
2023/10/06 00:32:26;;;;;;;;;;;;;;;27.94;42.27;95170.91;5032963;28;6999;-60
2023/10/06 00:35:11;;;;;;;;;;;;;;;27.93;41.85;95178.47;5045542;28;7239;-60
2023/10/06 00:37:39;;;;;;;;;;;;;;;27.93;42.63;95177.69;5031678;28;9280;-61
2023/10/06 00:40:24;;;;;;;;;;;;;;;27.88;42.29;95170.19;5032381;28;6982;-60
2023/10/06 00:42:56;;;;;;;;;;;;;;;27.93;42.17;95170.16;5023872;28;9066;-61
2023/10/06 00:45:30;;;;;;;;;;;;;;;27.89;41.93;95163.38;5032051;28;7094;-56
2023/10/06 00:48:13;;;;;;;;;;;;;;;27.91;42.47;95163.63;5034202;28;7372;-56
2023/10/06 00:50:58;;;;;;;;;;;;;;;27.87;42.54;95157.63;5021343;28;9292;-56
2023/10/06 00:53:31;;;;;;;;;;;;;;;27.89;42.67;95164.16;5032753;28;7209;-56
2023/10/06 00:56:08;;;;;;;;;;;;;;;27.90;42.17;95170.44;5016945;28;7225;-56
2023/10/06 00:58:41;;;;;;;;;;;;;;;27.90;42.48;95162.13;5053157;28;8790;-56
2023/10/06 01:01:16;;;;;;;;;;;;;;;27.88;42.19;95154.38;5020897;28;7341;-56
2023/10/06 01:04:11;;;;;;;;;;;;;;;27.88;42.16;95159.91;5042055;28;8742;-56
2023/10/06 01:06:41;;;;;;;;;;;;;;;27.87;42.42;95166.66;5068660;28;7279;-56
2023/10/06 01:11:46;;;;;;;;;;;;;;;27.85;42.25;95162.91;5066767;28;7336;-56
2023/10/06 01:14:21;;;;;;;;;;;;;;;27.84;42.03;95153.13;5077819;28;6982;-56
2023/10/06 01:16:52;;;;;;;;;;;;;;;27.86;42.23;95156.13;5052752;28;7445;-56
2023/10/06 01:21:53;;;;;;;;;;;;;;;27.85;41.97;95152.59;5077568;28;7246;-56
2023/10/06 01:24:29;;;;;;;;;;;;;;;27.84;41.70;95147.59;5065640;28;7311;-56
2023/10/06 01:27:07;;;;;;;;;;;;;;;27.82;42.49;95148.06;5073921;28;7414;-56
2023/10/06 01:29:35;;;;;;;;;;;;;;;27.82;41.85;95144.59;5067993;28;8552;-56
2023/10/06 01:32:20;;;;;;;;;;;;;;;27.85;42.24;95155.38;5069345;28;8782;-56
2023/10/06 01:34:51;;;;;;;;;;;;;;;27.83;42.61;95151.59;5050045;28;7520;-56
2023/10/06 01:37:18;;;;;;;;;;;;;;;27.83;42.03;95148.84;5071218;28;8874;-56
2023/10/06 01:39:51;;;;;;;;;;;;;;;27.85;41.86;95165.66;5054589;28;6980;-56
2023/10/06 01:42:24;;;;;;;;;;;;;;;27.85;42.00;95154.59;5085508;28;7075;-56
2023/10/06 01:44:54;;;;;;;;;;;;;;;27.81;42.13;95143.06;5053703;28;7230;-56
2023/10/06 01:47:22;;;;;;;;;;;;;;;27.83;42.11;95152.34;5055219;28;7240;-56
2023/10/06 01:49:50;;;;;;;;;;;;;;;27.83;41.96;95144.06;5033525;28;9928;-56
2023/10/06 01:52:19;;;;;;;;;;;;;;;27.83;42.36;95148.84;5054531;28;6978;-56
2023/10/06 01:55:01;;;;;;;;;;;;;;;27.81;42.01;95148.59;5058748;28;9060;-62
2023/10/06 01:57:40;;;;;;;;;;;;;;;27.82;42.11;95152.88;5057397;28;7625;-62
2023/10/06 02:00:25;;;;;;;;;;;;;;;27.81;42.47;95148.59;5048317;28;9409;-62
2023/10/06 02:02:55;;;;;;;;;;;;;;;27.79;42.20;95140.81;5081605;28;7268;-62
2023/10/06 02:05:34;;;;;;;;;;;;;;;27.78;41.96;95144.06;5073696;28;6989;-62
2023/10/06 02:08:00;;;;;;;;;;;;;;;27.78;42.07;95144.06;5054472;28;9223;-62
2023/10/06 02:10:27;;;;;;;;;;;;;;;27.80;42.32;95138.78;5056858;28;8814;-62
2023/10/06 02:13:04;;;;;;;;;;;;;;;27.79;42.21;95143.59;5068992;28;7016;-62
2023/10/06 02:15:40;;;;;;;;;;;;;;;27.77;41.97;95143.34;5050485;28;8780;-62
2023/10/06 02:18:12;;;;;;;;;;;;;;;27.77;42.31;95142.56;5071482;28;7004;-62
2023/10/06 02:20:49;;;;;;;;;;;;;;;27.74;42.13;95149.88;5070626;28;7298;-62
2023/10/06 02:23:28;;;;;;;;;;;;;;;27.72;42.16;95148.88;5070798;28;7004;-62
2023/10/06 02:26:13;;;;;;;;;;;;;;;27.74;42.47;95146.34;5052493;28;6993;-62
2023/10/06 02:28:54;;;;;;;;;;;;;;;27.75;42.46;95139.56;5077085;28;7075;-62
2023/10/06 02:31:35;;;;;;;;;;;;;;;27.74;42.39;95140.81;5067055;28;7311;-62
2023/10/06 02:34:13;;;;;;;;;;;;;;;27.70;42.66;95140.31;5067577;28;7261;-62
2023/10/06 02:36:43;;;;;;;;;;;;;;;27.71;42.80;95141.84;5055584;28;7266;-62
2023/10/06 02:39:28;;;;;;;;;;;;;;;27.71;42.48;95145.34;5076854;28;9615;-62
2023/10/06 02:42:02;;;;;;;;;;;;;;;27.72;42.56;95143.34;5067226;28;7039;-62
2023/10/06 02:44:30;;;;;;;;;;;;;;;27.72;42.56;95143.34;5084753;28;7036;-62
2023/10/06 02:46:59;;;;;;;;;;;;;;;27.70;42.36;95132.78;5069307;28;9085;-62
2023/10/06 02:49:31;;;;;;;;;;;;;;;27.71;42.23;95147.38;5069946;28;7161;-62
2023/10/06 02:52:01;;;;;;;;;;;;;;;27.72;42.03;95146.09;5050501;28;6968;-62
2023/10/06 02:54:44;;;;;;;;;;;;;;;27.70;42.30;95156.91;5069734;28;7263;-62
2023/10/06 02:57:13;;;;;;;;;;;;;;;27.69;42.01;95150.63;5078493;28;7394;-62
2023/10/06 02:59:43;;;;;;;;;;;;;;;27.67;42.27;95150.38;5071039;28;7454;-62
2023/10/06 03:02:21;;;;;;;;;;;;;;;27.68;42.21;95154.66;5074021;28;7284;-62
2023/10/06 03:04:54;;;;;;;;;;;;;;;27.68;42.58;95153.91;5049357;28;7492;-63
2023/10/06 03:07:29;;;;;;;;;;;;;;;27.67;42.43;95150.38;5065055;28;9079;-62
2023/10/06 03:10:12;;;;;;;;;;;;;;;27.68;42.44;95156.66;5052157;28;7350;-63
2023/10/06 03:12:43;;;;;;;;;;;;;;;27.67;42.37;95150.38;5069851;28;7299;-62
2023/10/06 03:16:10;;;;;;;;;;;;;;;27.66;42.10;95154.41;5043131;28;7240;-63
2023/10/06 03:18:36;;;;;;;;;;;;;;;27.64;42.27;95146.63;4992027;28;9331;-63
2023/10/06 03:21:15;;;;;;;;;;;;;;;27.66;42.54;95148.13;4986775;28;7138;-63
2023/10/06 03:23:56;;;;;;;;;;;;;;;27.66;42.52;95148.13;4984193;28;7335;-62
2023/10/06 03:26:29;;;;;;;;;;;;;;;27.66;41.94;95145.38;4986265;28;7571;-62
2023/10/06 03:29:02;;;;;;;;;;;;;;;27.64;42.22;95152.16;4984849;28;7534;-62
2023/10/06 03:31:56;;;;;;;;;;;;;;;27.63;42.47;95150.66;5009993;28;8999;-62
2023/10/06 03:34:22;;;;;;;;;;;;;;;27.63;42.26;95145.13;5010495;28;7279;-63
2023/10/06 03:36:53;;;;;;;;;;;;;;;27.64;41.72;95143.84;5010392;28;6860;-63
2023/10/06 03:39:31;;;;;;;;;;;;;;;27.63;42.45;95141.59;5014122;28;8120;-63
2023/10/06 03:42:01;;;;;;;;;;;;;;;27.61;42.21;95136.59;5011844;28;7257;-63
2023/10/06 03:45:04;;;;;;;;;;;;;;;27.60;42.34;95142.59;5000101;28;6993;-63
2023/10/06 03:47:48;;;;;;;;;;;;;;;27.60;42.49;95135.06;4982519;28;7354;-63
2023/10/06 03:50:30;;;;;;;;;;;;;;;27.60;42.29;95126.78;4993606;28;8723;-62
2023/10/06 03:52:59;;;;;;;;;;;;;;;27.60;42.01;95126.78;5031723;28;7152;-62
2023/10/06 03:55:27;;;;;;;;;;;;;;;27.61;42.31;95127.53;5066378;28;7390;-62
2023/10/06 03:58:29;;;;;;;;;;;;;;;27.60;42.05;95128.78;5062890;28;6991;-62
2023/10/06 04:00:58;;;;;;;;;;;;;;;27.59;42.22;95128.06;5014766;28;6990;-63
2023/10/06 04:03:34;;;;;;;;;;;;;;;27.58;42.30;95114.72;5022203;28;9488;-62
2023/10/06 04:06:15;;;;;;;;;;;;;;;27.55;42.30;95119.28;5037307;28;6970;-62
2023/10/06 04:09:19;;;;;;;;;;;;;;;27.57;42.27;95125.03;5031794;28;7032;-63
2023/10/06 04:11:57;;;;;;;;;;;;;;;27.54;42.12;95117.00;5008716;28;7064;-62
2023/10/06 04:14:28;;;;;;;;;;;;;;;27.55;41.81;95122.03;5034944;28;7282;-61
2023/10/06 04:16:55;;;;;;;;;;;;;;;27.54;42.20;95120.53;5041589;28;9023;-61
2023/10/06 04:19:52;;;;;;;;;;;;;;;27.53;42.40;95113.47;5029778;28;7029;-61
2023/10/06 04:22:18;;;;;;;;;;;;;;;27.52;42.65;95109.22;4965692;28;7276;-61
2023/10/06 04:24:45;;;;;;;;;;;;;;;27.49;41.79;95104.69;4957938;28;7298;-61
2023/10/06 04:27:11;;;;;;;;;;;;;;;27.47;42.76;95109.25;4970555;28;7369;-62
2023/10/06 04:29:52;;;;;;;;;;;;;;;27.44;42.29;95116.53;4956951;28;7255;-61
2023/10/06 04:32:31;;;;;;;;;;;;;;;27.42;42.31;95112.78;4967202;28;7268;-61
2023/10/06 04:35:00;;;;;;;;;;;;;;;27.41;42.68;95120.31;4976791;28;9123;-61
2023/10/06 04:37:29;;;;;;;;;;;;;;;27.39;42.79;95111.00;4982781;28;6983;-62
2023/10/06 04:39:57;;;;;;;;;;;;;;;27.38;42.61;95113.00;4991472;28;9443;-62
2023/10/06 04:42:24;;;;;;;;;;;;;;;27.38;42.45;95121.31;4973977;28;7369;-61
2023/10/06 04:45:06;;;;;;;;;;;;;;;27.37;42.49;95111.53;4999996;28;7482;-62
2023/10/06 04:47:36;;;;;;;;;;;;;;;27.38;42.43;95118.53;4977820;28;7216;-61
2023/10/06 04:50:16;;;;;;;;;;;;;;;27.37;42.43;95116.28;4978271;28;9096;-61
2023/10/06 04:53:13;;;;;;;;;;;;;;;27.38;42.75;95113.00;4995129;28;8622;-61
2023/10/06 04:55:48;;;;;;;;;;;;;;;27.38;42.31;95101.97;4951015;28;7575;-61
2023/10/06 04:58:14;;;;;;;;;;;;;;;27.39;42.84;95103.47;4983859;28;8786;-62
2023/10/06 05:01:16;;;;;;;;;;;;;;;27.36;42.76;95101.72;5021969;28;7276;-62
2023/10/06 05:03:45;;;;;;;;;;;;;;;27.34;42.87;95104.22;4918215;28;8688;-62
2023/10/06 05:06:16;;;;;;;;;;;;;;;27.35;42.86;95102.19;4928700;28;7312;-61
2023/10/06 05:08:48;;;;;;;;;;;;;;;27.32;42.67;95095.69;4934467;28;8206;-61
2023/10/06 05:11:32;;;;;;;;;;;;;;;27.36;42.59;95109.28;4938105;28;9088;-61
2023/10/06 05:14:00;;;;;;;;;;;;;;;27.32;42.67;95109.47;4941090;28;9219;-61
2023/10/06 05:16:57;;;;;;;;;;;;;;;27.35;42.64;95116.81;4915201;29;8791;-61
2023/10/06 05:19:23;;;;;;;;;;;;;;;27.33;42.69;95113.75;4861395;29;8759;-61
2023/10/06 05:21:52;;;;;;;;;;;;;;;27.33;42.88;95119.28;4856706;29;7352;-61
2023/10/06 05:24:19;;;;;;;;;;;;;;;27.33;42.89;95122.06;4863838;29;7276;-53
2023/10/06 05:26:46;;;;;;;;;;;;;;;27.31;43.08;95119.03;4870324;29;9609;-51
2023/10/06 05:29:17;;;;;;;;;;;;;;;27.31;42.81;95116.28;4854972;29;6976;-54
2023/10/06 05:31:47;;;;;;;;;;;;;;;27.33;43.00;95122.06;4873862;29;7235;-52
2023/10/06 05:34:17;;;;;;;;;;;;;;;27.33;43.14;95122.06;4878263;29;8796;-53
2023/10/06 05:37:14;;;;;;;;;;;;;;;27.32;42.74;95120.53;4863009;28;7398;-54
2023/10/06 05:39:42;;;;;;;;;;;;;;;27.33;42.58;95126.81;4924909;29;7182;-54
2023/10/06 05:42:20;;;;;;;;;;;;;;;27.31;42.76;95127.34;4915529;29;9172;-53
2023/10/06 05:45:12;;;;;;;;;;;;;;;27.31;42.85;95116.28;4921279;29;9301;-53
2023/10/06 05:47:54;;;;;;;;;;;;;;;27.30;42.80;95125.06;4932050;28;7229;-53
2023/10/06 05:50:36;;;;;;;;;;;;;;;27.30;43.07;95125.06;4935032;28;8102;-54
2023/10/06 05:53:05;;;;;;;;;;;;;;;27.28;43.11;95125.56;4950201;28;7166;-54
2023/10/06 05:55:38;;;;;;;;;;;;;;;27.29;42.90;95126.31;4952820;28;7511;-52
2023/10/06 05:58:30;;;;;;;;;;;;;;;27.26;42.92;95122.56;4974102;28;9042;-53
2023/10/06 06:01:00;;;;;;;;;;;;;;;27.27;42.77;95126.84;4997938;28;7068;-53
2023/10/06 06:03:49;;;;;;;;;;;;;;;27.29;43.26;95118.03;4981322;28;8753;-54
2023/10/06 06:06:29;;;;;;;;;;;;;;;27.28;42.97;95125.56;4983449;28;8801;-54
2023/10/06 06:09:14;;;;;;;;;;;;;;;27.27;42.78;95126.84;4980204;28;7264;-55
2023/10/06 06:11:43;;;;;;;;;;;;;;;27.28;42.73;95124.81;4982462;28;9216;-54
2023/10/06 06:14:22;;;;;;;;;;;;;;;27.26;42.61;95127.31;4967596;28;8610;-55
2023/10/06 06:16:55;;;;;;;;;;;;;;;27.26;42.73;95144.66;5040491;28;7371;-52
2023/10/06 06:19:21;;;;;;;;;;;;;;;27.25;42.22;95134.84;5083593;28;7477;-54
2023/10/06 06:21:49;;;;;;;;;;;;;;;27.25;42.41;95140.38;5060414;28;8206;-54
2023/10/06 06:24:23;;;;;;;;;;;;;;;27.25;42.53;95154.19;5068008;28;7295;-50
2023/10/06 06:26:50;;;;;;;;;;;;;;;27.24;42.64;95152.69;5061484;28;9077;-52
2023/10/06 06:29:24;;;;;;;;;;;;;;;27.25;42.57;95148.66;5078841;28;7520;-54
2023/10/06 06:31:52;;;;;;;;;;;;;;;27.26;43.00;95154.94;5049950;28;7523;-53
2023/10/06 06:34:49;;;;;;;;;;;;;;;27.27;42.35;95156.47;5072514;28;9522;-64
2023/10/06 06:37:15;;;;;;;;;;;;;;;27.28;42.21;95160.72;5010468;28;9165;-63
2023/10/06 06:39:52;;;;;;;;;;;;;;;27.26;42.57;95166.00;5004920;28;8443;-63
2023/10/06 06:42:53;;;;;;;;;;;;;;;27.29;42.51;95163.00;5026911;28;7120;-63
2023/10/06 06:45:31;;;;;;;;;;;;;;;27.27;42.67;95167.50;4929166;29;7251;-64
2023/10/06 06:48:13;;;;;;;;;;;;;;;27.25;42.54;95164.50;4922158;29;7221;-64
2023/10/06 06:50:58;;;;;;;;;;;;;;;27.29;42.87;95165.75;4930339;29;7210;-62
2023/10/06 06:53:29;;;;;;;;;;;;;;;27.29;42.57;95168.53;4930263;28;7220;-64
2023/10/06 06:56:06;;;;;;;;;;;;;;;27.29;42.68;95168.53;4917868;29;7117;-64
2023/10/06 06:58:43;;;;;;;;;;;;;;;27.27;42.49;95162.75;4928432;29;9087;-64
2023/10/06 07:01:26;;;;;;;;;;;;;;;27.27;42.50;95168.28;4907545;29;8965;-65
2023/10/06 07:04:12;;;;;;;;;;;;;;;27.29;42.54;95174.03;4917509;29;6984;-64
2023/10/06 07:06:52;;;;;;;;;;;;;;;27.31;42.43;95168.78;4931609;29;7277;-64
2023/10/06 07:09:30;;;;;;;;;;;;;;;27.32;42.28;95175.03;4932953;29;9396;-64
2023/10/06 07:11:56;;;;;;;;;;;;;;;27.31;42.19;95173.53;4932209;29;7349;-64
2023/10/06 07:14:22;;;;;;;;;;;;;;;27.29;42.33;95171.28;4946262;28;7206;-64
2023/10/06 07:16:48;;;;;;;;;;;;;;;27.31;42.20;95174.28;4945986;28;6995;-64
2023/10/06 07:19:14;;;;;;;;;;;;;;;27.33;42.39;95176.53;4954306;28;7416;-65
2023/10/06 07:21:43;;;;;;;;;;;;;;;27.34;42.51;95178.06;5036068;28;7277;-65
2023/10/06 07:24:31;;;;;;;;;;;;;;;27.33;42.31;95182.81;5087026;28;6991;-65
2023/10/06 07:27:08;;;;;;;;;;;;;;;27.30;42.13;95172.78;5067065;28;6996;-63
2023/10/06 07:29:38;;;;;;;;;;;;;;;27.33;42.30;95179.31;5060409;28;8730;-65
2023/10/06 07:32:07;;;;;;;;;;;;;;;27.32;41.87;95181.31;5053328;28;7253;-63
2023/10/06 07:34:34;;;;;;;;;;;;;;;27.33;41.94;95182.81;5068935;28;7127;-64
2023/10/06 07:37:11;;;;;;;;;;;;;;;27.33;42.04;95188.34;5049847;28;9051;-63
2023/10/06 07:39:37;;;;;;;;;;;;;;;27.33;41.87;95191.13;5047964;28;9222;-64
2023/10/06 07:42:16;;;;;;;;;;;;;;;27.28;41.77;95191.09;5050114;28;7069;-64
2023/10/06 07:45:05;;;;;;;;;;;;;;;27.28;41.85;95205.69;5061946;28;6994;-60
2023/10/06 07:47:46;;;;;;;;;;;;;;;27.23;41.61;95200.91;5072327;28;7014;-60
2023/10/06 07:50:19;;;;;;;;;;;;;;;27.21;41.87;95200.66;5055051;28;7275;-60
2023/10/06 07:52:48;;;;;;;;;;;;;;;27.20;41.48;95198.41;5066019;28;7199;-60
2023/10/06 07:55:24;;;;;;;;;;;;;;;27.15;41.88;95190.84;5056492;28;7252;-60
2023/10/06 07:57:51;;;;;;;;;;;;;;;27.19;41.91;95200.41;5053977;28;7120;-60
2023/10/06 08:00:27;;;;;;;;;;;;;;;27.21;41.54;95194.38;5081142;28;7382;-61
2023/10/06 08:03:05;;;;;;;;;;;;;;;27.25;41.94;95192.84;5065574;28;9066;-61
2023/10/06 08:05:34;;;;;;;;;;;;;;;27.26;41.54;95191.63;5082252;28;8828;-60
2023/10/06 08:08:09;;;;;;;;;;;;;;;27.26;41.48;95188.84;5068422;28;8745;-61
2023/10/06 08:10:36;;;;;;;;;;;;;;;27.25;41.47;95192.84;5053939;28;7286;-60
2023/10/06 08:13:21;;;;;;;;;;;;;;;27.27;42.04;95187.59;5053766;28;9132;-60
2023/10/06 08:15:58;;;;;;;;;;;;;;;27.29;41.60;95193.38;5069225;28;7189;-60
2023/10/06 08:18:30;;;;;;;;;;;;;;;27.32;41.50;95197.88;5057466;28;9306;-60
2023/10/06 08:21:16;;;;;;;;;;;;;;;27.32;41.56;95200.66;5057206;28;7219;-61
2023/10/06 08:24:11;;;;;;;;;;;;;;;27.30;41.52;95203.16;5061827;28;7005;-61
2023/10/06 08:26:43;;;;;;;;;;;;;;;27.29;41.49;95207.19;5075502;28;7440;-60
2023/10/06 08:29:11;;;;;;;;;;;;;;;27.29;41.49;95209.97;5061974;28;7369;-60
2023/10/06 08:31:49;;;;;;;;;;;;;;;27.34;41.60;95206.41;5077808;28;9079;-61
2023/10/06 08:34:23;;;;;;;;;;;;;;;27.36;41.31;95214.97;5044169;28;7183;-60
2023/10/06 08:36:49;;;;;;;;;;;;;;;27.33;41.48;95207.69;5075546;28;9440;-60
2023/10/06 08:39:20;;;;;;;;;;;;;;;27.33;41.45;95199.41;5088368;28;7226;-60
2023/10/06 08:41:56;;;;;;;;;;;;;;;27.34;41.50;95203.66;5067056;28;9815;-60
2023/10/06 08:44:22;;;;;;;;;;;;;;;27.35;41.63;95204.41;5052797;28;7852;-60
2023/10/06 08:47:01;;;;;;;;;;;;;;;27.33;41.45;95201.41;5058195;28;8781;-60
2023/10/06 08:49:43;;;;;;;;;;;;;;;27.33;41.49;95201.41;5055916;28;7016;-60
2023/10/06 08:52:29;;;;;;;;;;;;;;;27.33;41.80;95201.41;5075326;28;7259;-60
2023/10/06 08:55:09;;;;;;;;;;;;;;;27.31;41.92;95201.91;5058790;28;7227;-61
2023/10/06 08:57:34;;;;;;;;;;;;;;;27.34;41.16;95200.91;5061163;28;8665;-63
2023/10/06 09:00:00;;;;;;;;;;;;;;;27.33;41.19;95204.16;5076185;28;7294;-62
2023/10/06 09:02:35;;;;;;;;;;;;;;;27.32;41.18;95197.13;5083593;28;8768;-62
2023/10/06 09:05:01;;;;;;;;;;;;;;;27.31;41.50;95195.63;5062740;28;7176;-63
2023/10/06 09:07:27;;;;;;;;;;;;;;;27.28;41.37;95189.09;5053937;28;9259;-63
2023/10/06 09:09:53;;;;;;;;;;;;;;;27.27;41.59;95190.38;5075538;28;6974;-63
2023/10/06 09:12:26;;;;;;;;;;;;;;;27.28;41.22;95188.34;5059796;28;7252;-62
2023/10/06 09:15:04;;;;;;;;;;;;;;;27.27;41.19;95189.63;5074993;28;8854;-64
2023/10/06 09:17:39;;;;;;;;;;;;;;;27.22;41.62;95180.06;5049445;28;7006;-63
2023/10/06 09:20:47;;;;;;;;;;;;;;;27.26;41.38;95183.31;5059461;28;7259;-63
2023/10/06 09:23:34;;;;;;;;;;;;;;;27.26;41.52;95183.31;5014475;28;7269;-63
2023/10/06 09:26:03;;;;;;;;;;;;;;;27.26;41.02;95177.03;5010160;28;7251;-63
2023/10/06 09:28:30;;;;;;;;;;;;;;;27.27;41.20;95178.56;5025841;28;8783;-62
2023/10/06 09:31:01;;;;;;;;;;;;;;;27.27;41.90;95187.59;5024368;28;9295;-63
2023/10/06 09:33:28;;;;;;;;;;;;;;;27.29;41.37;95184.34;5031145;28;7280;-63
2023/10/06 09:36:07;;;;;;;;;;;;;;;27.27;41.72;95190.38;5037203;28;9162;-63
2023/10/06 09:38:37;;;;;;;;;;;;;;;27.27;41.42;95184.09;5034770;28;8793;-62
2023/10/06 09:41:25;;;;;;;;;;;;;;;27.28;41.64;95183.56;5034821;28;7242;-61
2023/10/06 09:44:04;;;;;;;;;;;;;;;27.25;41.68;95176.28;5039228;28;8723;-63
2023/10/06 09:46:34;;;;;;;;;;;;;;;27.32;41.82;95177.78;5012825;28;7263;-63
2023/10/06 09:49:15;;;;;;;;;;;;;;;27.32;41.66;95180.53;5045517;28;7252;-63
2023/10/06 09:51:50;;;;;;;;;;;;;;;27.33;41.81;95177.31;5031540;28;8664;-63
2023/10/06 09:54:46;;;;;;;;;;;;;;;27.32;42.24;95178.53;5012383;28;7432;-63
2023/10/06 09:57:14;;;;;;;;;;;;;;;27.32;42.15;95175.78;4964615;28;9366;-63
2023/10/06 09:59:44;;;;;;;;;;;;;;;27.34;42.13;95172.53;4987338;28;7403;-62
2023/10/06 10:02:23;;;;;;;;;;;;;;;27.35;41.83;95174.81;4990189;28;7460;-64
2023/10/06 10:05:01;;;;;;;;;;;;;;;27.37;42.04;95175.06;4991768;28;9094;-55
2023/10/06 10:08:06;;;;;;;;;;;;;;;27.35;42.14;95169.28;4979171;28;6998;-55
2023/10/06 10:10:49;;;;;;;;;;;;;;;27.39;42.33;95169.03;4919175;29;7240;-55
2023/10/06 10:13:40;;;;;;;;;;;;;;;27.37;42.58;95172.31;4931547;29;7482;-55
2023/10/06 10:16:52;;;;;;;;;;;;;;;27.39;42.50;95169.03;4931717;28;7252;-55
2023/10/06 10:19:22;;;;;;;;;;;;;;;27.38;42.51;95162.75;4929967;28;7196;-55
2023/10/06 10:21:58;;;;;;;;;;;;;;;27.39;42.65;95169.78;4921742;28;8893;-55
2023/10/06 10:24:26;;;;;;;;;;;;;;;27.38;42.53;95159.97;4933571;29;7009;-55
2023/10/06 10:27:14;;;;;;;;;;;;;;;27.36;42.50;95159.72;4928017;28;9003;-55
2023/10/06 10:29:41;;;;;;;;;;;;;;;27.40;42.44;95160.25;4933553;28;7158;-54
2023/10/06 10:32:29;;;;;;;;;;;;;;;27.40;42.60;95160.25;4914121;29;7328;-55
2023/10/06 10:35:14;;;;;;;;;;;;;;;27.39;42.25;95164.25;4947828;28;8771;-56
2023/10/06 10:37:58;;;;;;;;;;;;;;;27.43;42.24;95175.03;4954950;28;7243;-55
2023/10/06 10:40:46;;;;;;;;;;;;;;;27.44;42.32;95171.78;4951869;28;8230;-55
2023/10/06 10:43:14;;;;;;;;;;;;;;;27.47;42.18;95165.25;4973191;28;7494;-56
2023/10/06 10:45:45;;;;;;;;;;;;;;;27.48;42.31;95164.00;5067855;28;7207;-55
2023/10/06 10:48:17;;;;;;;;;;;;;;;27.49;42.04;95159.22;5070726;28;7327;-55
2023/10/06 10:51:10;;;;;;;;;;;;;;;27.51;42.32;95160.22;5073903;28;8725;-55
2023/10/06 10:53:45;;;;;;;;;;;;;;;27.53;42.00;95154.94;5052821;28;7008;-55
2023/10/06 10:56:43;;;;;;;;;;;;;;;27.53;42.07;95151.44;5052666;28;9105;-55
2023/10/06 10:59:11;;;;;;;;;;;;;;;27.55;42.20;95138.63;5048561;28;7070;-54
2023/10/06 11:01:40;;;;;;;;;;;;;;;27.57;42.02;95138.09;5066756;28;8984;-55
2023/10/06 11:06:58;;;;;;;;;;;;;;;27.58;41.71;95145.88;5065399;28;7241;-55
2023/10/06 11:09:40;;;;;;;;;;;;;;;27.60;41.67;95140.59;5052725;28;8290;-54
2023/10/06 11:12:21;;;;;;;;;;;;;;;27.61;41.63;95142.13;5059665;28;7076;-55
2023/10/06 11:14:51;;;;;;;;;;;;;;;27.62;41.33;95137.34;5051781;28;9189;-62
2023/10/06 11:17:23;;;;;;;;;;;;;;;27.61;42.10;95136.59;5057566;28;7164;-62
2023/10/06 11:20:22;;;;;;;;;;;;;;;27.60;41.47;95134.31;5068291;28;6859;-61
2023/10/06 11:23:32;;;;;;;;;;;;;;;27.61;41.66;95135.84;5076226;28;9055;-62
2023/10/06 11:26:31;;;;;;;;;;;;;;;27.61;42.21;95135.84;5077549;28;7222;-62
2023/10/06 11:29:12;;;;;;;;;;;;;;;27.60;41.34;95132.31;5057077;28;9322;-61
2023/10/06 11:31:43;;;;;;;;;;;;;;;27.59;41.33;95130.81;5070514;28;7349;-62
2023/10/06 11:34:18;;;;;;;;;;;;;;;27.62;41.50;95129.78;5055438;28;7242;-62
2023/10/06 11:36:47;;;;;;;;;;;;;;;27.61;41.79;95130.31;5073050;28;8797;-62
2023/10/06 11:39:13;;;;;;;;;;;;;;;27.62;41.30;95131.81;5054022;28;7065;-62
2023/10/06 11:42:35;;;;;;;;;;;;;;;27.64;41.44;95134.84;5051874;28;8870;-62
2023/10/06 11:45:24;;;;;;;;;;;;;;;27.63;41.42;95117.50;5070964;28;9098;-62
2023/10/06 11:47:54;;;;;;;;;;;;;;;27.62;41.53;95112.47;5046692;28;6995;-62
2023/10/06 11:50:32;;;;;;;;;;;;;;;27.64;41.39;95116.22;5088038;28;8148;-62
2023/10/06 11:53:28;;;;;;;;;;;;;;;27.62;41.47;95107.69;5064218;28;7348;-62
2023/10/06 11:56:12;;;;;;;;;;;;;;;27.66;41.48;95107.44;4995333;28;9191;-62
2023/10/06 11:58:40;;;;;;;;;;;;;;;27.67;41.69;95110.94;4998246;28;7282;-62
2023/10/06 12:01:32;;;;;;;;;;;;;;;27.68;41.36;95102.16;4998662;28;7159;-62
2023/10/06 12:04:31;;;;;;;;;;;;;;;27.70;41.60;95099.63;5002243;28;7347;-62
2023/10/06 12:07:00;;;;;;;;;;;;;;;27.71;41.66;95097.63;4957703;28;7291;-62
2023/10/06 12:09:34;;;;;;;;;;;;;;;27.70;41.11;95091.34;4957234;28;8031;-62
2023/10/06 12:12:03;;;;;;;;;;;;;;;27.71;41.33;95089.34;4972971;28;7233;-62
2023/10/06 12:14:31;;;;;;;;;;;;;;;27.70;41.22;95091.34;4968841;28;7815;-62
2023/10/06 12:17:01;;;;;;;;;;;;;;;27.71;41.58;95083.81;4958606;28;7152;-62
2023/10/06 12:19:27;;;;;;;;;;;;;;;27.72;41.25;95085.28;4968934;28;9141;-62
2023/10/06 12:22:11;;;;;;;;;;;;;;;27.75;41.47;95089.81;4971636;28;7276;-62
2023/10/06 12:24:42;;;;;;;;;;;;;;;27.79;41.74;95082.00;4972283;28;8649;-66
2023/10/06 12:27:27;;;;;;;;;;;;;;;27.81;41.30;95079.47;4956037;28;7565;-65
2023/10/06 12:29:55;;;;;;;;;;;;;;;27.86;41.17;95084.97;4947129;28;7091;-65
2023/10/06 12:32:22;;;;;;;;;;;;;;;27.90;41.28;95079.19;4998132;28;7245;-65
2023/10/06 12:35:06;;;;;;;;;;;;;;;27.91;41.13;95084.22;5044465;28;9451;-65
2023/10/06 12:37:42;;;;;;;;;;;;;;;27.95;41.49;95079.16;5034804;28;7062;-66
2023/10/06 12:40:38;;;;;;;;;;;;;;;27.97;40.87;95079.44;5010617;28;8430;-66
2023/10/06 12:43:09;;;;;;;;;;;;;;;27.99;41.53;95070.63;5007371;28;7032;-65
2023/10/06 12:45:44;;;;;;;;;;;;;;;28.00;41.18;95072.13;5011364;28;6994;-66
2023/10/06 12:48:11;;;;;;;;;;;;;;;28.01;40.71;95070.88;5012954;28;7272;-66
2023/10/06 12:50:43;;;;;;;;;;;;;;;28.06;40.73;95067.31;5005765;28;6945;-65
2023/10/06 12:53:23;;;;;;;;;;;;;;;28.08;40.94;95059.25;5013120;28;7537;-65
2023/10/06 12:56:04;;;;;;;;;;;;;;;28.09;41.44;95064.28;4996601;28;8450;-66
2023/10/06 12:58:33;;;;;;;;;;;;;;;28.08;40.21;95068.31;4999017;28;7403;-65
2023/10/06 13:01:30;;;;;;;;;;;;;;;28.10;40.86;95065.06;5014880;28;8977;-65
2023/10/06 13:03:58;;;;;;;;;;;;;;;28.12;40.54;95066.03;4982652;28;6991;-66
2023/10/06 13:06:24;;;;;;;;;;;;;;;28.12;40.77;95071.56;4989495;28;7013;-65
2023/10/06 13:08:55;;;;;;;;;;;;;;;28.17;41.12;95064.47;4973720;28;7264;-65
2023/10/06 13:11:36;;;;;;;;;;;;;;;28.18;41.07;95066.00;4974743;28;7238;-65
2023/10/06 13:14:15;;;;;;;;;;;;;;;28.19;40.58;95059.19;4973010;28;6978;-65
2023/10/06 13:16:51;;;;;;;;;;;;;;;28.21;40.42;95059.44;4987653;28;7174;-65
2023/10/06 13:19:17;;;;;;;;;;;;;;;28.19;40.61;95050.91;5010192;28;7232;-66
2023/10/06 13:21:46;;;;;;;;;;;;;;;28.22;41.22;95047.13;5013361;28;7425;-65
2023/10/06 13:24:13;;;;;;;;;;;;;;;28.23;40.93;95045.88;5029659;28;9243;-66
2023/10/06 13:26:42;;;;;;;;;;;;;;;28.26;40.39;95050.34;5021583;28;6998;-65
2023/10/06 13:29:08;;;;;;;;;;;;;;;28.24;40.64;95053.63;5025809;28;9245;-65
2023/10/06 13:31:37;;;;;;;;;;;;;;;28.23;40.58;95046.59;5032459;28;8831;-65
2023/10/06 13:34:11;;;;;;;;;;;;;;;28.26;40.49;95045.56;5031856;28;7363;-65
2023/10/06 13:37:03;;;;;;;;;;;;;;;28.28;40.74;95054.13;5028104;28;7228;-65
2023/10/06 13:39:35;;;;;;;;;;;;;;;28.29;40.76;95055.63;5044303;28;8234;-65
2023/10/06 13:42:04;;;;;;;;;;;;;;;28.27;41.00;95054.63;5078850;28;8218;-65
2023/10/06 13:44:42;;;;;;;;;;;;;;;28.26;41.34;95050.34;5069490;28;9091;-65
2023/10/06 13:47:47;;;;;;;;;;;;;;;28.26;40.36;95051.09;5053987;28;7259;-65
2023/10/06 13:50:28;;;;;;;;;;;;;;;28.31;40.96;95046.81;5025906;28;7368;-65
2023/10/06 13:52:55;;;;;;;;;;;;;;;28.32;41.20;95054.59;5006582;28;9775;-65
2023/10/06 13:55:54;;;;;;;;;;;;;;;28.34;41.10;95046.53;5027673;28;9057;-65